sensor_id;sensor_type;location;lat;lon;timestamp;P1;durP1;ratioP1;P2;durP2;ratioP2
11531;SDS011;5822;51.000;5.874;2023-12-22T00:01:41;18.73;;;17.17;;
11531;SDS011;5822;51.000;5.874;2023-12-22T00:04:07;18.13;;;16.58;;
11531;SDS011;5822;51.000;5.874;2023-12-22T00:06:32;18.10;;;16.70;;
11531;SDS011;5822;51.000;5.874;2023-12-22T00:08:58;18.23;;;16.65;;
11531;SDS011;5822;51.000;5.874;2023-12-22T00:11:24;18.63;;;17.02;;
11531;SDS011;5822;51.000;5.874;2023-12-22T00:13:50;18.40;;;16.98;;
11531;SDS011;5822;51.000;5.874;2023-12-22T00:16:15;17.42;;;16.10;;
11531;SDS011;5822;51.000;5.874;2023-12-22T00:18:41;17.85;;;16.45;;
11531;SDS011;5822;51.000;5.874;2023-12-22T00:21:10;18.35;;;16.75;;
11531;SDS011;5822;51.000;5.874;2023-12-22T00:23:36;18.30;;;16.70;;
11531;SDS011;5822;51.000;5.874;2023-12-22T00:26:02;18.25;;;16.67;;
11531;SDS011;5822;51.000;5.874;2023-12-22T00:28:28;19.15;;;17.55;;
11531;SDS011;5822;51.000;5.874;2023-12-22T00:30:56;18.67;;;17.17;;
11531;SDS011;5822;51.000;5.874;2023-12-22T00:33:23;19.10;;;17.50;;
11531;SDS011;5822;51.000;5.874;2023-12-22T00:35:49;18.97;;;17.40;;
11531;SDS011;5822;51.000;5.874;2023-12-22T00:38:15;18.40;;;17.00;;
11531;SDS011;5822;51.000;5.874;2023-12-22T00:40:40;19.30;;;17.70;;
11531;SDS011;5822;51.000;5.874;2023-12-22T00:43:06;19.10;;;17.50;;
11531;SDS011;5822;51.000;5.874;2023-12-22T00:45:31;18.87;;;17.30;;
11531;SDS011;5822;51.000;5.874;2023-12-22T00:47:57;19.47;;;17.80;;
11531;SDS011;5822;51.000;5.874;2023-12-22T00:50:23;18.80;;;17.30;;
11531;SDS011;5822;51.000;5.874;2023-12-22T00:52:48;19.53;;;17.93;;
11531;SDS011;5822;51.000;5.874;2023-12-22T00:55:14;19.43;;;17.83;;
11531;SDS011;5822;51.000;5.874;2023-12-22T00:57:39;19.70;;;18.00;;
11531;SDS011;5822;51.000;5.874;2023-12-22T01:00:05;19.30;;;17.80;;
11531;SDS011;5822;51.000;5.874;2023-12-22T01:02:35;18.30;;;16.90;;
11531;SDS011;5822;51.000;5.874;2023-12-22T01:05:01;18.90;;;17.40;;
11531;SDS011;5822;51.000;5.874;2023-12-22T01:07:26;18.17;;;16.77;;
11531;SDS011;5822;51.000;5.874;2023-12-22T01:09:52;19.33;;;17.83;;
11531;SDS011;5822;51.000;5.874;2023-12-22T01:12:18;18.38;;;16.88;;
11531;SDS011;5822;51.000;5.874;2023-12-22T01:14:44;18.50;;;17.00;;
11531;SDS011;5822;51.000;5.874;2023-12-22T01:17:10;18.53;;;17.03;;
11531;SDS011;5822;51.000;5.874;2023-12-22T01:19:36;19.80;;;18.00;;
11531;SDS011;5822;51.000;5.874;2023-12-22T01:22:02;20.88;;;18.98;;
11531;SDS011;5822;51.000;5.874;2023-12-22T01:24:27;21.27;;;19.27;;
11531;SDS011;5822;51.000;5.874;2023-12-22T01:26:53;20.83;;;18.85;;
11531;SDS011;5822;51.000;5.874;2023-12-22T01:29:19;20.40;;;18.60;;
11531;SDS011;5822;51.000;5.874;2023-12-22T01:31:44;19.42;;;17.83;;
11531;SDS011;5822;51.000;5.874;2023-12-22T01:34:10;19.08;;;17.48;;
11531;SDS011;5822;51.000;5.874;2023-12-22T01:36:36;18.85;;;17.25;;
11531;SDS011;5822;51.000;5.874;2023-12-22T01:39:02;20.60;;;18.70;;
11531;SDS011;5822;51.000;5.874;2023-12-22T01:41:28;19.43;;;17.83;;
11531;SDS011;5822;51.000;5.874;2023-12-22T01:43:53;19.50;;;17.90;;
11531;SDS011;5822;51.000;5.874;2023-12-22T01:46:19;19.40;;;17.90;;
11531;SDS011;5822;51.000;5.874;2023-12-22T01:48:46;19.30;;;17.70;;
11531;SDS011;5822;51.000;5.874;2023-12-22T01:51:12;19.15;;;17.60;;
11531;SDS011;5822;51.000;5.874;2023-12-22T01:53:37;19.33;;;17.73;;
11531;SDS011;5822;51.000;5.874;2023-12-22T01:56:03;19.00;;;17.50;;
11531;SDS011;5822;51.000;5.874;2023-12-22T01:58:30;18.55;;;17.17;;
11531;SDS011;5822;51.000;5.874;2023-12-22T02:00:58;18.73;;;17.17;;
11531;SDS011;5822;51.000;5.874;2023-12-22T02:03:23;18.90;;;17.30;;
11531;SDS011;5822;51.000;5.874;2023-12-22T02:05:50;19.20;;;17.60;;
11531;SDS011;5822;51.000;5.874;2023-12-22T02:08:17;19.42;;;17.80;;
11531;SDS011;5822;51.000;5.874;2023-12-22T02:10:44;19.70;;;17.90;;
11531;SDS011;5822;51.000;5.874;2023-12-22T02:13:10;18.17;;;16.88;;
11531;SDS011;5822;51.000;5.874;2023-12-22T02:15:36;19.33;;;17.70;;
11531;SDS011;5822;51.000;5.874;2023-12-22T02:20:36;19.40;;;17.85;;
11531;SDS011;5822;51.000;5.874;2023-12-22T02:23:03;20.10;;;18.30;;
11531;SDS011;5822;51.000;5.874;2023-12-22T02:25:28;18.97;;;17.50;;
11531;SDS011;5822;51.000;5.874;2023-12-22T02:27:57;19.20;;;17.70;;
11531;SDS011;5822;51.000;5.874;2023-12-22T02:32:56;18.30;;;16.90;;
11531;SDS011;5822;51.000;5.874;2023-12-22T02:35:26;18.73;;;17.23;;
11531;SDS011;5822;51.000;5.874;2023-12-22T02:37:54;19.00;;;17.40;;
11531;SDS011;5822;51.000;5.874;2023-12-22T02:40:22;19.38;;;17.88;;
11531;SDS011;5822;51.000;5.874;2023-12-22T02:42:49;19.17;;;17.63;;
11531;SDS011;5822;51.000;5.874;2023-12-22T02:45:17;19.80;;;18.13;;
11531;SDS011;5822;51.000;5.874;2023-12-22T02:47:43;18.75;;;17.30;;
11531;SDS011;5822;51.000;5.874;2023-12-22T02:50:10;18.80;;;17.40;;
11531;SDS011;5822;51.000;5.874;2023-12-22T02:52:36;18.93;;;17.53;;
11531;SDS011;5822;51.000;5.874;2023-12-22T02:55:02;20.13;;;18.33;;
11531;SDS011;5822;51.000;5.874;2023-12-22T02:57:28;21.02;;;19.17;;
11531;SDS011;5822;51.000;5.874;2023-12-22T02:59:54;20.42;;;18.60;;
11531;SDS011;5822;51.000;5.874;2023-12-22T03:02:21;20.35;;;18.73;;
11531;SDS011;5822;51.000;5.874;2023-12-22T03:04:46;20.42;;;18.65;;
11531;SDS011;5822;51.000;5.874;2023-12-22T03:07:12;19.35;;;17.85;;
11531;SDS011;5822;51.000;5.874;2023-12-22T03:09:39;20.10;;;18.47;;
11531;SDS011;5822;51.000;5.874;2023-12-22T03:12:05;19.70;;;18.10;;
11531;SDS011;5822;51.000;5.874;2023-12-22T03:14:31;19.20;;;17.80;;
11531;SDS011;5822;51.000;5.874;2023-12-22T03:17:04;19.70;;;18.20;;
11531;SDS011;5822;51.000;5.874;2023-12-22T03:19:31;19.63;;;18.23;;
11531;SDS011;5822;51.000;5.874;2023-12-22T03:21:58;18.83;;;17.50;;
11531;SDS011;5822;51.000;5.874;2023-12-22T03:24:27;19.38;;;17.77;;
11531;SDS011;5822;51.000;5.874;2023-12-22T03:26:53;19.25;;;17.83;;
11531;SDS011;5822;51.000;5.874;2023-12-22T03:29:19;19.30;;;17.80;;
11531;SDS011;5822;51.000;5.874;2023-12-22T03:31:45;19.40;;;17.90;;
11531;SDS011;5822;51.000;5.874;2023-12-22T03:34:11;19.02;;;17.52;;
11531;SDS011;5822;51.000;5.874;2023-12-22T03:36:37;19.00;;;17.60;;
11531;SDS011;5822;51.000;5.874;2023-12-22T03:39:03;19.57;;;18.07;;
11531;SDS011;5822;51.000;5.874;2023-12-22T03:41:29;18.73;;;17.33;;
11531;SDS011;5822;51.000;5.874;2023-12-22T03:43:56;19.10;;;17.60;;
11531;SDS011;5822;51.000;5.874;2023-12-22T03:46:22;18.30;;;16.98;;
11531;SDS011;5822;51.000;5.874;2023-12-22T03:48:48;19.30;;;17.90;;
11531;SDS011;5822;51.000;5.874;2023-12-22T03:51:14;18.70;;;17.30;;
11531;SDS011;5822;51.000;5.874;2023-12-22T03:53:40;18.60;;;17.20;;
11531;SDS011;5822;51.000;5.874;2023-12-22T03:56:09;19.27;;;17.70;;
11531;SDS011;5822;51.000;5.874;2023-12-22T03:58:38;18.60;;;17.20;;
11531;SDS011;5822;51.000;5.874;2023-12-22T04:01:04;18.90;;;17.40;;
11531;SDS011;5822;51.000;5.874;2023-12-22T04:03:32;20.00;;;18.23;;
11531;SDS011;5822;51.000;5.874;2023-12-22T04:06:00;20.83;;;19.02;;
11531;SDS011;5822;51.000;5.874;2023-12-22T04:08:27;20.42;;;18.73;;
11531;SDS011;5822;51.000;5.874;2023-12-22T04:10:53;19.80;;;18.20;;
11531;SDS011;5822;51.000;5.874;2023-12-22T04:13:18;20.37;;;18.57;;
11531;SDS011;5822;51.000;5.874;2023-12-22T04:15:44;20.53;;;18.73;;
11531;SDS011;5822;51.000;5.874;2023-12-22T04:18:10;20.27;;;18.50;;
11531;SDS011;5822;51.000;5.874;2023-12-22T04:20:35;19.93;;;18.33;;
11531;SDS011;5822;51.000;5.874;2023-12-22T04:23:01;20.00;;;18.30;;
11531;SDS011;5822;51.000;5.874;2023-12-22T04:25:27;20.50;;;18.80;;
11531;SDS011;5822;51.000;5.874;2023-12-22T04:27:52;20.10;;;18.50;;
11531;SDS011;5822;51.000;5.874;2023-12-22T04:30:18;20.03;;;18.40;;
11531;SDS011;5822;51.000;5.874;2023-12-22T04:32:43;20.40;;;18.73;;
11531;SDS011;5822;51.000;5.874;2023-12-22T04:35:09;20.70;;;18.90;;
11531;SDS011;5822;51.000;5.874;2023-12-22T04:37:35;20.63;;;18.83;;
11531;SDS011;5822;51.000;5.874;2023-12-22T04:40:00;21.33;;;19.33;;
11531;SDS011;5822;51.000;5.874;2023-12-22T04:42:26;20.48;;;18.77;;
11531;SDS011;5822;51.000;5.874;2023-12-22T04:44:52;20.70;;;18.87;;
11531;SDS011;5822;51.000;5.874;2023-12-22T04:47:18;19.97;;;18.33;;
11531;SDS011;5822;51.000;5.874;2023-12-22T04:49:43;19.97;;;18.27;;
11531;SDS011;5822;51.000;5.874;2023-12-22T04:52:10;20.47;;;18.70;;
11531;SDS011;5822;51.000;5.874;2023-12-22T04:54:36;20.70;;;18.90;;
11531;SDS011;5822;51.000;5.874;2023-12-22T04:57:01;20.90;;;19.10;;
11531;SDS011;5822;51.000;5.874;2023-12-22T04:59:27;21.80;;;19.70;;
11531;SDS011;5822;51.000;5.874;2023-12-22T05:01:53;21.35;;;19.55;;
11531;SDS011;5822;51.000;5.874;2023-12-22T05:04:19;20.95;;;19.15;;
11531;SDS011;5822;51.000;5.874;2023-12-22T05:06:44;21.38;;;19.48;;
11531;SDS011;5822;51.000;5.874;2023-12-22T05:09:10;21.02;;;19.23;;
11531;SDS011;5822;51.000;5.874;2023-12-22T05:11:37;20.15;;;18.45;;
11531;SDS011;5822;51.000;5.874;2023-12-22T05:14:03;20.60;;;18.90;;
11531;SDS011;5822;51.000;5.874;2023-12-22T05:16:28;21.23;;;19.42;;
11531;SDS011;5822;51.000;5.874;2023-12-22T05:18:56;20.70;;;19.00;;
11531;SDS011;5822;51.000;5.874;2023-12-22T05:21:23;20.90;;;19.20;;
11531;SDS011;5822;51.000;5.874;2023-12-22T05:23:48;20.98;;;19.27;;
11531;SDS011;5822;51.000;5.874;2023-12-22T05:26:18;21.35;;;19.55;;
11531;SDS011;5822;51.000;5.874;2023-12-22T05:28:45;21.48;;;19.58;;
11531;SDS011;5822;51.000;5.874;2023-12-22T05:31:11;21.67;;;19.77;;
11531;SDS011;5822;51.000;5.874;2023-12-22T05:33:36;22.03;;;20.07;;
11531;SDS011;5822;51.000;5.874;2023-12-22T05:36:02;21.90;;;19.90;;
11531;SDS011;5822;51.000;5.874;2023-12-22T05:38:28;21.75;;;19.85;;
11531;SDS011;5822;51.000;5.874;2023-12-22T05:40:54;20.90;;;19.20;;
11531;SDS011;5822;51.000;5.874;2023-12-22T05:43:19;21.95;;;20.02;;
11531;SDS011;5822;51.000;5.874;2023-12-22T05:45:45;21.70;;;19.80;;
11531;SDS011;5822;51.000;5.874;2023-12-22T05:48:11;22.27;;;20.20;;
11531;SDS011;5822;51.000;5.874;2023-12-22T05:50:36;22.57;;;20.47;;
11531;SDS011;5822;51.000;5.874;2023-12-22T05:53:02;22.10;;;20.10;;
11531;SDS011;5822;51.000;5.874;2023-12-22T05:55:28;21.80;;;19.90;;
11531;SDS011;5822;51.000;5.874;2023-12-22T05:57:54;21.38;;;19.58;;
11531;SDS011;5822;51.000;5.874;2023-12-22T06:00:20;21.67;;;19.77;;
11531;SDS011;5822;51.000;5.874;2023-12-22T06:02:46;22.13;;;20.13;;
11531;SDS011;5822;51.000;5.874;2023-12-22T06:05:12;21.75;;;19.85;;
11531;SDS011;5822;51.000;5.874;2023-12-22T06:07:38;22.40;;;20.40;;
11531;SDS011;5822;51.000;5.874;2023-12-22T06:10:05;22.73;;;20.63;;
11531;SDS011;5822;51.000;5.874;2023-12-22T06:12:32;22.55;;;20.50;;
11531;SDS011;5822;51.000;5.874;2023-12-22T06:14:57;23.98;;;21.67;;
11531;SDS011;5822;51.000;5.874;2023-12-22T06:17:23;23.77;;;21.48;;
11531;SDS011;5822;51.000;5.874;2023-12-22T06:19:48;23.30;;;21.00;;
11531;SDS011;5822;51.000;5.874;2023-12-22T06:22:14;23.43;;;21.03;;
11531;SDS011;5822;51.000;5.874;2023-12-22T06:24:40;22.30;;;20.20;;
11531;SDS011;5822;51.000;5.874;2023-12-22T06:27:06;23.25;;;21.05;;
11531;SDS011;5822;51.000;5.874;2023-12-22T06:29:32;23.85;;;21.45;;
11531;SDS011;5822;51.000;5.874;2023-12-22T06:31:58;23.40;;;21.13;;
11531;SDS011;5822;51.000;5.874;2023-12-22T06:34:23;22.10;;;20.10;;
11531;SDS011;5822;51.000;5.874;2023-12-22T06:36:50;22.33;;;20.33;;
11531;SDS011;5822;51.000;5.874;2023-12-22T06:39:16;22.30;;;20.30;;
11531;SDS011;5822;51.000;5.874;2023-12-22T06:41:42;21.88;;;19.88;;
11531;SDS011;5822;51.000;5.874;2023-12-22T06:44:07;22.05;;;20.02;;
11531;SDS011;5822;51.000;5.874;2023-12-22T06:46:35;23.40;;;21.10;;
11531;SDS011;5822;51.000;5.874;2023-12-22T06:49:01;23.95;;;21.45;;
11531;SDS011;5822;51.000;5.874;2023-12-22T06:51:27;23.08;;;20.98;;
11531;SDS011;5822;51.000;5.874;2023-12-22T06:53:59;23.08;;;20.90;;
11531;SDS011;5822;51.000;5.874;2023-12-22T06:56:26;22.33;;;20.42;;
11531;SDS011;5822;51.000;5.874;2023-12-22T06:58:57;23.35;;;21.23;;
11531;SDS011;5822;51.000;5.874;2023-12-22T07:03:50;23.55;;;21.25;;
11531;SDS011;5822;51.000;5.874;2023-12-22T07:06:16;23.73;;;21.63;;
11531;SDS011;5822;51.000;5.874;2023-12-22T07:08:42;24.88;;;22.73;;
11531;SDS011;5822;51.000;5.874;2023-12-22T07:11:09;27.77;;;25.38;;
11531;SDS011;5822;51.000;5.874;2023-12-22T07:13:35;37.10;;;34.42;;
11531;SDS011;5822;51.000;5.874;2023-12-22T07:16:02;45.10;;;42.30;;
11531;SDS011;5822;51.000;5.874;2023-12-22T07:18:28;48.90;;;45.85;;
11531;SDS011;5822;51.000;5.874;2023-12-22T07:20:57;55.72;;;52.42;;
11531;SDS011;5822;51.000;5.874;2023-12-22T07:23:23;54.38;;;51.28;;
11531;SDS011;5822;51.000;5.874;2023-12-22T07:25:49;64.07;;;60.58;;
11531;SDS011;5822;51.000;5.874;2023-12-22T07:28:14;40.63;;;37.93;;
11531;SDS011;5822;51.000;5.874;2023-12-22T07:30:40;26.13;;;23.83;;
11531;SDS011;5822;51.000;5.874;2023-12-22T07:33:06;25.30;;;23.10;;
11531;SDS011;5822;51.000;5.874;2023-12-22T07:35:32;24.70;;;22.70;;
11531;SDS011;5822;51.000;5.874;2023-12-22T07:37:58;28.52;;;26.23;;
11531;SDS011;5822;51.000;5.874;2023-12-22T07:40:24;28.00;;;25.80;;
11531;SDS011;5822;51.000;5.874;2023-12-22T07:42:50;24.43;;;22.43;;
11531;SDS011;5822;51.000;5.874;2023-12-22T07:45:15;25.20;;;23.10;;
11531;SDS011;5822;51.000;5.874;2023-12-22T07:47:41;26.53;;;24.23;;
11531;SDS011;5822;51.000;5.874;2023-12-22T07:50:07;28.92;;;26.52;;
11531;SDS011;5822;51.000;5.874;2023-12-22T07:52:36;26.45;;;24.35;;
11531;SDS011;5822;51.000;5.874;2023-12-22T07:55:07;27.23;;;24.80;;
11531;SDS011;5822;51.000;5.874;2023-12-22T07:57:35;26.30;;;24.20;;
11531;SDS011;5822;51.000;5.874;2023-12-22T08:00:01;24.40;;;22.42;;
11531;SDS011;5822;51.000;5.874;2023-12-22T08:02:28;26.75;;;24.63;;
11531;SDS011;5822;51.000;5.874;2023-12-22T08:04:54;24.02;;;22.08;;
11531;SDS011;5822;51.000;5.874;2023-12-22T08:07:19;23.23;;;21.42;;
11531;SDS011;5822;51.000;5.874;2023-12-22T08:09:45;24.85;;;22.80;;
11531;SDS011;5822;51.000;5.874;2023-12-22T08:12:11;23.67;;;21.67;;
11531;SDS011;5822;51.000;5.874;2023-12-22T08:14:36;25.70;;;23.70;;
11531;SDS011;5822;51.000;5.874;2023-12-22T08:17:02;25.48;;;23.27;;
11531;SDS011;5822;51.000;5.874;2023-12-22T08:19:28;25.50;;;23.30;;
11531;SDS011;5822;51.000;5.874;2023-12-22T08:21:53;25.60;;;23.40;;
11531;SDS011;5822;51.000;5.874;2023-12-22T08:24:19;25.40;;;23.30;;
11531;SDS011;5822;51.000;5.874;2023-12-22T08:26:45;28.52;;;26.17;;
11531;SDS011;5822;51.000;5.874;2023-12-22T08:29:11;24.23;;;22.13;;
11531;SDS011;5822;51.000;5.874;2023-12-22T08:31:37;24.97;;;22.97;;
11531;SDS011;5822;51.000;5.874;2023-12-22T08:34:02;26.30;;;24.00;;
11531;SDS011;5822;51.000;5.874;2023-12-22T08:36:28;25.20;;;23.20;;
11531;SDS011;5822;51.000;5.874;2023-12-22T08:38:54;22.80;;;21.10;;
11531;SDS011;5822;51.000;5.874;2023-12-22T08:41:19;24.37;;;22.47;;
11531;SDS011;5822;51.000;5.874;2023-12-22T08:43:45;23.70;;;21.80;;
11531;SDS011;5822;51.000;5.874;2023-12-22T08:46:11;24.90;;;22.80;;
11531;SDS011;5822;51.000;5.874;2023-12-22T08:48:37;23.38;;;21.48;;
11531;SDS011;5822;51.000;5.874;2023-12-22T08:51:03;23.93;;;22.03;;
11531;SDS011;5822;51.000;5.874;2023-12-22T08:53:29;21.60;;;19.90;;
11531;SDS011;5822;51.000;5.874;2023-12-22T08:55:58;21.00;;;19.30;;
11531;SDS011;5822;51.000;5.874;2023-12-22T08:58:28;21.40;;;19.90;;
11531;SDS011;5822;51.000;5.874;2023-12-22T09:00:54;20.63;;;19.02;;
11531;SDS011;5822;51.000;5.874;2023-12-22T09:03:20;19.70;;;18.30;;
11531;SDS011;5822;51.000;5.874;2023-12-22T09:05:46;19.60;;;18.20;;
11531;SDS011;5822;51.000;5.874;2023-12-22T09:08:12;22.13;;;20.58;;
11531;SDS011;5822;51.000;5.874;2023-12-22T09:10:38;20.30;;;18.90;;
11531;SDS011;5822;51.000;5.874;2023-12-22T09:13:04;20.70;;;19.30;;
11531;SDS011;5822;51.000;5.874;2023-12-22T09:15:29;20.30;;;18.80;;
11531;SDS011;5822;51.000;5.874;2023-12-22T09:17:55;21.57;;;20.07;;
11531;SDS011;5822;51.000;5.874;2023-12-22T09:20:21;20.60;;;19.20;;
11531;SDS011;5822;51.000;5.874;2023-12-22T09:22:47;21.65;;;20.15;;
11531;SDS011;5822;51.000;5.874;2023-12-22T09:25:13;21.55;;;20.05;;
11531;SDS011;5822;51.000;5.874;2023-12-22T09:27:39;22.05;;;20.45;;
11531;SDS011;5822;51.000;5.874;2023-12-22T09:30:05;21.10;;;19.67;;
11531;SDS011;5822;51.000;5.874;2023-12-22T09:32:34;21.60;;;20.10;;
11531;SDS011;5822;51.000;5.874;2023-12-22T09:35:00;20.65;;;19.35;;
11531;SDS011;5822;51.000;5.874;2023-12-22T09:37:26;21.02;;;19.63;;
11531;SDS011;5822;51.000;5.874;2023-12-22T09:39:51;19.77;;;18.47;;
11531;SDS011;5822;51.000;5.874;2023-12-22T09:42:17;20.20;;;18.80;;
11531;SDS011;5822;51.000;5.874;2023-12-22T09:44:44;19.98;;;18.63;;
11531;SDS011;5822;51.000;5.874;2023-12-22T09:47:13;21.10;;;19.60;;
11531;SDS011;5822;51.000;5.874;2023-12-22T09:49:41;20.08;;;18.77;;
11531;SDS011;5822;51.000;5.874;2023-12-22T09:52:08;20.27;;;18.88;;
11531;SDS011;5822;51.000;5.874;2023-12-22T09:54:35;20.10;;;18.70;;
11531;SDS011;5822;51.000;5.874;2023-12-22T09:57:02;20.00;;;18.70;;
11531;SDS011;5822;51.000;5.874;2023-12-22T09:59:29;19.60;;;18.30;;
11531;SDS011;5822;51.000;5.874;2023-12-22T10:01:58;19.40;;;18.20;;
11531;SDS011;5822;51.000;5.874;2023-12-22T10:04:27;19.30;;;18.10;;
11531;SDS011;5822;51.000;5.874;2023-12-22T10:06:53;19.35;;;18.13;;
11531;SDS011;5822;51.000;5.874;2023-12-22T10:09:25;20.60;;;19.30;;
11531;SDS011;5822;51.000;5.874;2023-12-22T10:11:51;19.58;;;18.35;;
11531;SDS011;5822;51.000;5.874;2023-12-22T10:14:18;20.25;;;18.88;;
11531;SDS011;5822;51.000;5.874;2023-12-22T10:16:51;20.35;;;19.05;;
11531;SDS011;5822;51.000;5.874;2023-12-22T10:19:18;20.63;;;19.30;;
11531;SDS011;5822;51.000;5.874;2023-12-22T10:21:45;19.80;;;18.60;;
11531;SDS011;5822;51.000;5.874;2023-12-22T10:27:09;19.20;;;18.00;;
11531;SDS011;5822;51.000;5.874;2023-12-22T10:29:35;19.77;;;18.48;;
11531;SDS011;5822;51.000;5.874;2023-12-22T10:32:02;20.85;;;19.55;;
11531;SDS011;5822;51.000;5.874;2023-12-22T10:34:29;19.98;;;18.67;;
11531;SDS011;5822;51.000;5.874;2023-12-22T10:36:55;19.63;;;18.33;;
11531;SDS011;5822;51.000;5.874;2023-12-22T10:39:21;19.65;;;18.40;;
11531;SDS011;5822;51.000;5.874;2023-12-22T10:41:47;18.75;;;17.55;;
11531;SDS011;5822;51.000;5.874;2023-12-22T10:44:16;19.52;;;18.30;;
11531;SDS011;5822;51.000;5.874;2023-12-22T10:46:46;19.70;;;18.50;;
11531;SDS011;5822;51.000;5.874;2023-12-22T10:49:12;18.95;;;17.83;;
11531;SDS011;5822;51.000;5.874;2023-12-22T10:51:38;18.80;;;17.70;;
11531;SDS011;5822;51.000;5.874;2023-12-22T10:54:04;20.07;;;18.80;;
11531;SDS011;5822;51.000;5.874;2023-12-22T10:56:31;18.58;;;17.48;;
11531;SDS011;5822;51.000;5.874;2023-12-22T10:58:56;18.98;;;17.77;;
11531;SDS011;5822;51.000;5.874;2023-12-22T11:01:23;18.92;;;17.80;;
11531;SDS011;5822;51.000;5.874;2023-12-22T11:03:54;18.65;;;17.48;;
11531;SDS011;5822;51.000;5.874;2023-12-22T11:06:26;18.67;;;17.57;;
11531;SDS011;5822;51.000;5.874;2023-12-22T11:08:54;18.83;;;17.73;;
11531;SDS011;5822;51.000;5.874;2023-12-22T11:11:34;18.67;;;17.58;;
11531;SDS011;5822;51.000;5.874;2023-12-22T11:14:02;18.33;;;17.23;;
11531;SDS011;5822;51.000;5.874;2023-12-22T11:16:29;19.03;;;17.83;;
11531;SDS011;5822;51.000;5.874;2023-12-22T11:18:55;18.40;;;17.20;;
11531;SDS011;5822;51.000;5.874;2023-12-22T11:21:22;20.33;;;19.13;;
11531;SDS011;5822;51.000;5.874;2023-12-22T11:23:52;18.38;;;17.27;;
11531;SDS011;5822;51.000;5.874;2023-12-22T11:26:19;19.20;;;18.00;;
11531;SDS011;5822;51.000;5.874;2023-12-22T11:28:49;18.20;;;17.10;;
11531;SDS011;5822;51.000;5.874;2023-12-22T11:31:16;18.60;;;17.50;;
11531;SDS011;5822;51.000;5.874;2023-12-22T11:33:48;18.05;;;16.95;;
11531;SDS011;5822;51.000;5.874;2023-12-22T11:36:15;18.83;;;17.70;;
11531;SDS011;5822;51.000;5.874;2023-12-22T11:38:43;18.15;;;17.05;;
11531;SDS011;5822;51.000;5.874;2023-12-22T11:41:24;16.58;;;15.57;;
11531;SDS011;5822;51.000;5.874;2023-12-22T11:43:52;17.40;;;16.40;;
11531;SDS011;5822;51.000;5.874;2023-12-22T11:46:19;17.20;;;16.20;;
11531;SDS011;5822;51.000;5.874;2023-12-22T11:48:48;18.60;;;17.50;;
11531;SDS011;5822;51.000;5.874;2023-12-22T11:51:15;18.30;;;17.30;;
11531;SDS011;5822;51.000;5.874;2023-12-22T11:53:42;18.17;;;17.10;;
11531;SDS011;5822;51.000;5.874;2023-12-22T11:56:09;21.20;;;20.00;;
11531;SDS011;5822;51.000;5.874;2023-12-22T12:01:23;19.20;;;18.00;;
11531;SDS011;5822;51.000;5.874;2023-12-22T12:03:50;18.55;;;17.45;;
11531;SDS011;5822;51.000;5.874;2023-12-22T12:08:58;17.90;;;16.83;;
11531;SDS011;5822;51.000;5.874;2023-12-22T12:14:20;19.10;;;18.00;;
11531;SDS011;5822;51.000;5.874;2023-12-22T12:16:48;19.20;;;18.10;;
11531;SDS011;5822;51.000;5.874;2023-12-22T12:19:14;19.90;;;18.80;;
11531;SDS011;5822;51.000;5.874;2023-12-22T12:21:39;19.50;;;18.40;;
11531;SDS011;5822;51.000;5.874;2023-12-22T12:24:05;19.70;;;18.60;;
11531;SDS011;5822;51.000;5.874;2023-12-22T12:26:34;19.13;;;18.02;;
11531;SDS011;5822;51.000;5.874;2023-12-22T12:29:01;19.20;;;18.00;;
11531;SDS011;5822;51.000;5.874;2023-12-22T12:31:37;16.70;;;15.70;;
11531;SDS011;5822;51.000;5.874;2023-12-22T12:34:04;16.38;;;15.38;;
11531;SDS011;5822;51.000;5.874;2023-12-22T12:36:30;16.33;;;15.40;;
11531;SDS011;5822;51.000;5.874;2023-12-22T12:39:01;16.88;;;15.85;;
11531;SDS011;5822;51.000;5.874;2023-12-22T12:41:40;16.70;;;15.60;;
11531;SDS011;5822;51.000;5.874;2023-12-22T12:44:06;16.67;;;15.68;;
11531;SDS011;5822;51.000;5.874;2023-12-22T12:46:37;17.15;;;16.13;;
11531;SDS011;5822;51.000;5.874;2023-12-22T12:49:07;16.50;;;15.50;;
11531;SDS011;5822;51.000;5.874;2023-12-22T12:51:37;16.20;;;15.25;;
11531;SDS011;5822;51.000;5.874;2023-12-22T12:54:07;16.63;;;15.63;;
11531;SDS011;5822;51.000;5.874;2023-12-22T12:56:41;16.93;;;15.90;;
11531;SDS011;5822;51.000;5.874;2023-12-22T12:59:10;17.60;;;16.60;;
11531;SDS011;5822;51.000;5.874;2023-12-22T13:01:40;17.53;;;16.43;;
11531;SDS011;5822;51.000;5.874;2023-12-22T13:04:06;17.15;;;16.05;;
11531;SDS011;5822;51.000;5.874;2023-12-22T13:06:32;17.00;;;15.90;;
11531;SDS011;5822;51.000;5.874;2023-12-22T13:08:58;17.00;;;15.90;;
11531;SDS011;5822;51.000;5.874;2023-12-22T13:11:31;16.15;;;15.20;;
11531;SDS011;5822;51.000;5.874;2023-12-22T13:13:57;16.70;;;15.60;;
11531;SDS011;5822;51.000;5.874;2023-12-22T13:16:24;16.50;;;15.50;;
11531;SDS011;5822;51.000;5.874;2023-12-22T13:18:54;17.52;;;16.48;;
11531;SDS011;5822;51.000;5.874;2023-12-22T13:21:24;17.95;;;16.85;;
11531;SDS011;5822;51.000;5.874;2023-12-22T13:26:35;16.48;;;15.48;;
11531;SDS011;5822;51.000;5.874;2023-12-22T13:29:02;18.00;;;16.90;;
11531;SDS011;5822;51.000;5.874;2023-12-22T13:31:27;16.40;;;15.40;;
11531;SDS011;5822;51.000;5.874;2023-12-22T13:33:56;16.48;;;15.48;;
11531;SDS011;5822;51.000;5.874;2023-12-22T13:36:22;16.90;;;15.90;;
11531;SDS011;5822;51.000;5.874;2023-12-22T13:38:48;17.17;;;16.00;;
11531;SDS011;5822;51.000;5.874;2023-12-22T13:41:14;16.97;;;15.97;;
11531;SDS011;5822;51.000;5.874;2023-12-22T13:43:40;17.00;;;15.80;;
11531;SDS011;5822;51.000;5.874;2023-12-22T13:46:06;17.70;;;16.50;;
11531;SDS011;5822;51.000;5.874;2023-12-22T13:48:36;17.30;;;16.10;;
11531;SDS011;5822;51.000;5.874;2023-12-22T13:51:01;17.92;;;16.73;;
11531;SDS011;5822;51.000;5.874;2023-12-22T13:53:28;19.05;;;17.85;;
11531;SDS011;5822;51.000;5.874;2023-12-22T13:55:57;17.27;;;16.17;;
11531;SDS011;5822;51.000;5.874;2023-12-22T13:58:23;17.85;;;16.65;;
11531;SDS011;5822;51.000;5.874;2023-12-22T14:00:50;17.80;;;16.60;;
11531;SDS011;5822;51.000;5.874;2023-12-22T14:03:16;17.30;;;16.20;;
11531;SDS011;5822;51.000;5.874;2023-12-22T14:05:43;17.48;;;16.38;;
11531;SDS011;5822;51.000;5.874;2023-12-22T14:08:09;18.40;;;17.10;;
11531;SDS011;5822;51.000;5.874;2023-12-22T14:10:34;17.70;;;16.50;;
11531;SDS011;5822;51.000;5.874;2023-12-22T14:13:00;18.20;;;16.90;;
11531;SDS011;5822;51.000;5.874;2023-12-22T14:15:27;17.92;;;16.70;;
11531;SDS011;5822;51.000;5.874;2023-12-22T14:17:58;18.20;;;16.90;;
11531;SDS011;5822;51.000;5.874;2023-12-22T14:20:23;19.97;;;18.57;;
11531;SDS011;5822;51.000;5.874;2023-12-22T14:22:49;19.08;;;17.77;;
11531;SDS011;5822;51.000;5.874;2023-12-22T14:25:15;19.83;;;18.42;;
11531;SDS011;5822;51.000;5.874;2023-12-22T14:27:41;18.50;;;17.30;;
11531;SDS011;5822;51.000;5.874;2023-12-22T14:30:07;18.77;;;17.48;;
11531;SDS011;5822;51.000;5.874;2023-12-22T14:32:33;19.20;;;17.80;;
11531;SDS011;5822;51.000;5.874;2023-12-22T14:34:59;19.92;;;18.50;;
11531;SDS011;5822;51.000;5.874;2023-12-22T14:37:25;18.93;;;17.63;;
11531;SDS011;5822;51.000;5.874;2023-12-22T14:39:55;19.70;;;18.40;;
11531;SDS011;5822;51.000;5.874;2023-12-22T14:42:23;19.00;;;17.70;;
11531;SDS011;5822;51.000;5.874;2023-12-22T14:44:49;19.38;;;17.98;;
11531;SDS011;5822;51.000;5.874;2023-12-22T14:47:14;19.20;;;17.90;;
11531;SDS011;5822;51.000;5.874;2023-12-22T14:49:40;19.40;;;18.10;;
11531;SDS011;5822;51.000;5.874;2023-12-22T14:52:07;18.30;;;17.10;;